Time;durP1;ratioP1;P1;durP2;ratioP2;P2;SDS_P1;SDS_P2;PMS_P1;PMS_P2;Temp;Humidity;BMP_temperature;BMP_pressure;BME280_temperature;BME280_humidity;BME280_pressure;Samples;Min_cycle;Max_cycle;Signal;HPM_P1;HPM_P2
2021/10/27 00:01:47;;;;;;;8.45;3.88;;;14.10;99.90;;;;;;5054608;28;20052;-68
2021/10/27 00:04:13;;;;;;;18.00;5.32;;;14.10;99.90;;;;;;5043412;28;20047;-67
2021/10/27 00:06:38;;;;;;;13.48;4.22;;;14.10;99.90;;;;;;5060431;28;20037;-68
2021/10/27 00:09:05;;;;;;;12.80;3.95;;;14.20;99.90;;;;;;5039920;28;20556;-69
2021/10/27 00:11:31;;;;;;;13.45;3.88;;;14.10;99.90;;;;;;5056195;28;20111;-67
2021/10/27 00:13:57;;;;;;;10.38;4.03;;;14.10;99.90;;;;;;5058997;28;20114;-68
2021/10/27 00:16:23;;;;;;;11.45;3.83;;;14.20;99.90;;;;;;5039946;28;20503;-68
2021/10/27 00:18:49;;;;;;;9.57;4.07;;;14.20;99.90;;;;;;5059807;28;20037;-68
2021/10/27 00:21:15;;;;;;;9.23;3.65;;;14.20;99.90;;;;;;5039111;28;20033;-69
2021/10/27 00:23:41;;;;;;;14.43;3.55;;;14.20;99.90;;;;;;5041749;28;20042;-71
2021/10/27 00:26:06;;;;;;;14.88;3.65;;;14.20;99.90;;;;;;5057561;28;20128;-67
2021/10/27 00:28:32;;;;;;;10.02;3.25;;;14.20;99.90;;;;;;5037601;28;20393;-69
2021/10/27 00:30:58;;;;;;;12.15;3.17;;;14.30;99.90;;;;;;5040487;28;20044;-69
2021/10/27 00:33:23;;;;;;;9.52;3.42;;;14.20;99.90;;;;;;5039907;28;20104;-67
2021/10/27 00:35:49;;;;;;;14.60;4.40;;;14.20;99.90;;;;;;5041623;28;20039;-68
2021/10/27 00:38:15;;;;;;;11.50;3.20;;;14.20;99.90;;;;;;5038291;28;20056;-67
2021/10/27 00:40:40;;;;;;;9.68;4.38;;;14.20;99.90;;;;;;5060090;28;20491;-68
2021/10/27 00:43:06;;;;;;;10.43;2.85;;;14.20;99.90;;;;;;5056725;28;20033;-68
2021/10/27 00:45:32;;;;;;;11.60;2.90;;;14.30;99.90;;;;;;5041146;28;20075;-70
2021/10/27 00:47:58;;;;;;;16.08;3.60;;;14.30;99.90;;;;;;5039968;28;20107;-66
2021/10/27 00:50:24;;;;;;;11.27;3.08;;;14.30;99.90;;;;;;5038670;28;20562;-69
2021/10/27 00:52:49;;;;;;;10.10;3.35;;;14.30;99.90;;;;;;5038960;28;20402;-67
2021/10/27 00:55:15;;;;;;;7.82;3.40;;;14.30;99.90;;;;;;5059372;28;20039;-68
2021/10/27 00:57:42;;;;;;;10.55;3.47;;;14.30;99.90;;;;;;5056956;28;20052;-67
2021/10/27 01:00:08;;;;;;;12.27;4.20;;;14.30;99.90;;;;;;5059031;28;20032;-68
2021/10/27 01:02:34;;;;;;;10.30;2.85;;;14.20;99.90;;;;;;5056413;28;20067;-68
2021/10/27 01:04:59;;;;;;;9.00;3.55;;;14.30;99.90;;;;;;5040210;28;20064;-67
2021/10/27 01:07:26;;;;;;;8.05;3.20;;;14.20;99.90;;;;;;5058226;28;20033;-66
2021/10/27 01:09:51;;;;;;;10.60;3.33;;;14.20;99.90;;;;;;5056641;28;20412;-68
2021/10/27 01:12:17;;;;;;;10.10;3.80;;;14.20;99.90;;;;;;5040965;28;20040;-68
2021/10/27 01:14:46;;;;;;;13.05;3.40;;;14.20;99.90;;;;;;5038288;28;20584;-67
2021/10/27 01:17:16;;;;;;;10.23;4.20;;;14.20;99.90;;;;;;5056154;28;20087;-68
2021/10/27 01:19:47;;;;;;;8.13;3.10;;;14.20;99.90;;;;;;5056028;28;20033;-68
2021/10/27 01:22:16;;;;;;;6.65;3.33;;;14.10;99.90;;;;;;5041443;28;20025;-68
2021/10/27 01:24:42;;;;;;;20.02;3.92;;;14.10;99.90;;;;;;5059334;28;20112;-68
2021/10/27 01:27:08;;;;;;;10.32;3.90;;;14.10;99.90;;;;;;5056267;28;20144;-67
2021/10/27 01:29:34;;;;;;;8.50;3.78;;;14.00;99.90;;;;;;5041043;28;20539;-67
2021/10/27 01:32:00;;;;;;;12.02;3.15;;;14.00;99.90;;;;;;5056898;28;20040;-68
2021/10/27 01:34:26;;;;;;;15.85;4.53;;;14.00;99.90;;;;;;5057374;28;20108;-67
2021/10/27 01:36:52;;;;;;;12.45;3.80;;;14.00;99.90;;;;;;5061852;28;20032;-68
2021/10/27 01:39:17;;;;;;;11.75;4.28;;;14.00;99.90;;;;;;5059973;28;20089;-68
2021/10/27 01:41:43;;;;;;;8.85;3.47;;;14.00;99.90;;;;;;5062922;28;20025;-68
2021/10/27 01:44:09;;;;;;;14.93;4.90;;;14.00;99.90;;;;;;5059519;28;20036;-70
2021/10/27 01:46:36;;;;;;;11.50;5.10;;;14.00;99.90;;;;;;5045414;28;20043;-68
2021/10/27 01:49:06;;;;;;;8.50;3.55;;;14.00;99.90;;;;;;5041374;28;20048;-67
2021/10/27 01:51:33;;;;;;;9.57;4.47;;;14.00;99.90;;;;;;5060503;28;20044;-70
2021/10/27 01:53:59;;;;;;;12.98;4.30;;;14.10;99.90;;;;;;5061886;28;20040;-67
2021/10/27 01:56:26;;;;;;;8.18;3.50;;;14.00;99.90;;;;;;5043030;28;20069;-68
2021/10/27 01:58:52;;;;;;;7.40;4.05;;;14.00;99.90;;;;;;5060677;28;20049;-69
2021/10/27 02:01:18;;;;;;;15.40;4.47;;;13.90;99.90;;;;;;5060400;28;20059;-68
2021/10/27 02:03:44;;;;;;;9.70;3.58;;;14.00;99.90;;;;;;5059872;28;20040;-68
2021/10/27 02:06:11;;;;;;;13.05;3.80;;;14.00;99.90;;;;;;5044808;28;20469;-69
2021/10/27 02:08:37;;;;;;;10.57;3.50;;;14.00;99.90;;;;;;5041572;28;20025;-67
2021/10/27 02:11:03;;;;;;;10.18;3.90;;;14.00;99.90;;;;;;5044254;28;20053;-67
2021/10/27 02:13:29;;;;;;;9.88;3.58;;;13.90;99.90;;;;;;5042592;28;20103;-66
2021/10/27 02:15:55;;;;;;;10.15;3.45;;;13.90;99.90;;;;;;5060258;28;20079;-68
2021/10/27 02:18:20;;;;;;;7.07;2.78;;;13.90;99.90;;;;;;5059874;28;20035;-66
2021/10/27 02:20:47;;;;;;;15.30;3.17;;;13.90;99.90;;;;;;5059911;28;20033;-67
2021/10/27 02:23:14;;;;;;;10.10;2.90;;;13.90;99.90;;;;;;5044058;28;20029;-67
2021/10/27 02:25:40;;;;;;;13.00;3.20;;;13.80;99.90;;;;;;5041779;28;20071;-66
2021/10/27 02:28:05;;;;;;;15.68;3.03;;;13.90;99.90;;;;;;5043908;28;20066;-68
2021/10/27 02:30:31;;;;;;;9.70;2.35;;;13.90;99.90;;;;;;5059829;28;20405;-68
2021/10/27 02:32:57;;;;;;;7.25;2.60;;;13.90;99.90;;;;;;5043423;28;20044;-68
2021/10/27 02:35:23;;;;;;;11.80;2.55;;;13.90;99.90;;;;;;5060428;28;20039;-68
2021/10/27 02:37:48;;;;;;;10.18;2.50;;;13.90;99.90;;;;;;5060198;28;20580;-68
2021/10/27 02:40:15;;;;;;;4.43;2.28;;;13.90;99.90;;;;;;5060817;28;20554;-68
2021/10/27 02:42:41;;;;;;;9.10;2.50;;;14.00;99.90;;;;;;5059582;28;20029;-68
2021/10/27 02:45:09;;;;;;;9.93;2.45;;;14.00;99.90;;;;;;5062177;28;20776;-67
2021/10/27 02:47:35;;;;;;;15.25;2.35;;;14.00;99.90;;;;;;5058758;28;20037;-68
2021/10/27 02:50:00;;;;;;;7.28;1.90;;;14.00;99.90;;;;;;5060006;28;20119;-68
2021/10/27 02:52:26;;;;;;;11.20;2.38;;;14.00;99.90;;;;;;5059448;28;20040;-67
2021/10/27 02:54:52;;;;;;;7.80;2.58;;;14.00;99.90;;;;;;5042498;28;20045;-66
2021/10/27 02:57:17;;;;;;;9.50;1.70;;;14.00;99.90;;;;;;5062231;28;20034;-68
2021/10/27 02:59:43;;;;;;;7.57;3.05;;;14.00;99.90;;;;;;5060955;28;20492;-68
2021/10/27 03:02:08;;;;;;;8.88;2.20;;;13.90;99.90;;;;;;5041967;28;20439;-68
2021/10/27 03:04:34;;;;;;;12.73;2.20;;;13.90;99.90;;;;;;5040698;28;20044;-67
2021/10/27 03:06:59;;;;;;;12.45;1.73;;;14.00;99.90;;;;;;5061622;28;20032;-67
2021/10/27 03:09:25;;;;;;;8.15;1.60;;;14.00;99.90;;;;;;5041179;28;20039;-68
2021/10/27 03:11:53;;;;;;;8.32;2.25;;;14.10;99.90;;;;;;5041748;28;20107;-68
2021/10/27 03:14:19;;;;;;;8.02;1.92;;;14.00;99.90;;;;;;5059968;28;20032;-68
2021/10/27 03:16:45;;;;;;;5.88;1.35;;;14.10;99.90;;;;;;5059265;28;20041;-67
2021/10/27 03:19:11;;;;;;;9.15;1.88;;;14.10;99.90;;;;;;5060501;28;20032;-68
2021/10/27 03:21:36;;;;;;;8.20;1.63;;;14.00;99.90;;;;;;5040537;28;20131;-68
2021/10/27 03:24:02;;;;;;;8.02;2.08;;;14.10;99.90;;;;;;5043565;28;20029;-68
2021/10/27 03:26:28;;;;;;;6.38;1.30;;;14.10;99.90;;;;;;5040304;28;20459;-67
2021/10/27 03:28:53;;;;;;;4.82;1.58;;;14.10;99.90;;;;;;5042225;28;20112;-68
2021/10/27 03:31:19;;;;;;;5.50;1.55;;;14.00;99.90;;;;;;5041148;28;20029;-66
2021/10/27 03:33:45;;;;;;;6.38;1.80;;;14.10;99.90;;;;;;5041200;28;20037;-67
2021/10/27 03:36:11;;;;;;;6.72;1.40;;;14.10;99.90;;;;;;5042524;28;20036;-66
2021/10/27 03:38:37;;;;;;;11.20;1.98;;;14.10;99.90;;;;;;5058142;28;20480;-67
2021/10/27 03:41:02;;;;;;;7.40;1.92;;;14.10;99.90;;;;;;5061062;28;20032;-69
2021/10/27 03:43:28;;;;;;;5.30;1.02;;;14.10;99.90;;;;;;5057801;28;20032;-69
2021/10/27 03:45:54;;;;;;;9.00;1.45;;;14.10;99.90;;;;;;5041976;28;20500;-67
2021/10/27 03:48:20;;;;;;;9.10;1.73;;;14.10;99.90;;;;;;5058741;28;20760;-67
2021/10/27 03:50:45;;;;;;;6.10;1.48;;;14.10;99.90;;;;;;5039003;28;20033;-67
2021/10/27 03:53:11;;;;;;;8.23;1.58;;;14.10;99.90;;;;;;5041586;28;20115;-66
2021/10/27 03:55:37;;;;;;;7.28;2.30;;;14.10;99.90;;;;;;5040450;28;20065;-68
2021/10/27 03:58:03;;;;;;;6.93;1.73;;;14.00;99.90;;;;;;5041919;28;20024;-68
2021/10/27 04:00:29;;;;;;;5.10;1.45;;;14.00;99.90;;;;;;5058170;28;20056;-67
2021/10/27 04:02:55;;;;;;;3.95;1.83;;;14.00;99.90;;;;;;5038633;28;20035;-67
2021/10/27 04:05:21;;;;;;;8.98;1.48;;;14.00;99.90;;;;;;5042684;28;20270;-67
2021/10/27 04:07:46;;;;;;;10.70;2.10;;;13.90;99.90;;;;;;5041129;28;20033;-69
2021/10/27 04:10:13;;;;;;;7.30;1.60;;;14.00;99.90;;;;;;5040412;28;20444;-68
2021/10/27 04:12:42;;;;;;;3.22;1.20;;;13.90;99.90;;;;;;5060179;28;20435;-68
2021/10/27 04:15:11;;;;;;;6.57;1.40;;;13.90;99.90;;;;;;5057405;28;20033;-67
2021/10/27 04:17:37;;;;;;;6.85;1.73;;;14.00;99.90;;;;;;5042376;28;20043;-68
2021/10/27 04:20:05;;;;;;;8.30;2.22;;;13.90;99.90;;;;;;5056082;28;20033;-67
2021/10/27 04:22:31;;;;;;;8.50;2.30;;;13.90;99.90;;;;;;5056965;28;20404;-68
2021/10/27 04:24:57;;;;;;;9.10;1.73;;;13.90;99.90;;;;;;5059598;28;20119;-67
2021/10/27 04:27:23;;;;;;;5.72;1.20;;;14.00;99.90;;;;;;5057077;28;20136;-68
2021/10/27 04:29:49;;;;;;;7.45;1.90;;;14.00;99.90;;;;;;5040640;28;20045;-70
2021/10/27 04:32:14;;;;;;;7.60;1.33;;;14.00;99.90;;;;;;5058390;28;20551;-69
2021/10/27 04:34:40;;;;;;;6.63;2.15;;;14.00;99.90;;;;;;5040225;28;20037;-68
2021/10/27 04:37:07;;;;;;;7.70;1.83;;;14.00;99.90;;;;;;5059054;28;20056;-67
2021/10/27 04:39:32;;;;;;;4.90;0.85;;;14.00;99.90;;;;;;5056805;28;20071;-68
2021/10/27 04:41:58;;;;;;;3.78;1.67;;;14.00;99.90;;;;;;5059905;28;20528;-67
2021/10/27 04:44:24;;;;;;;8.88;2.05;;;14.10;99.90;;;;;;5038591;28;20040;-67
2021/10/27 04:46:49;;;;;;;14.23;1.63;;;14.10;99.90;;;;;;5059088;28;20064;-68
2021/10/27 04:49:15;;;;;;;3.60;1.40;;;14.10;99.90;;;;;;5055124;28;20127;-67
2021/10/27 04:51:41;;;;;;;3.80;1.45;;;14.10;99.90;;;;;;5040120;28;20064;-68
2021/10/27 04:54:06;;;;;;;3.50;1.45;;;14.10;99.90;;;;;;5040462;28;20435;-67
2021/10/27 04:56:32;;;;;;;10.95;1.38;;;14.10;99.90;;;;;;5057036;28;20067;-67
2021/10/27 04:58:57;;;;;;;7.90;1.73;;;14.10;99.90;;;;;;5059208;28;20457;-67
2021/10/27 05:01:23;;;;;;;11.27;1.48;;;14.00;99.90;;;;;;5053579;28;20025;-68
2021/10/27 05:03:49;;;;;;;5.25;2.45;;;14.10;99.90;;;;;;5024312;28;20124;-68
2021/10/27 05:06:15;;;;;;;10.10;2.08;;;14.10;99.90;;;;;;5039660;28;20090;-67
2021/10/27 05:08:42;;;;;;;7.68;1.63;;;14.00;99.90;;;;;;5057678;28;20497;-68
2021/10/27 05:11:07;;;;;;;7.97;1.63;;;14.10;99.90;;;;;;5039370;28;20036;-67
2021/10/27 05:13:33;;;;;;;9.38;1.88;;;14.10;99.90;;;;;;5056880;28;20091;-69
2021/10/27 05:15:59;;;;;;;4.43;1.10;;;14.10;99.90;;;;;;5059406;28;20036;-66
2021/10/27 05:18:24;;;;;;;7.05;1.70;;;14.00;99.90;;;;;;5055906;28;20037;-66
2021/10/27 05:20:50;;;;;;;5.25;1.70;;;14.00;99.90;;;;;;5041061;28;20513;-69
2021/10/27 05:23:16;;;;;;;8.10;2.03;;;14.00;99.90;;;;;;5057079;28;20429;-67
2021/10/27 05:25:41;;;;;;;8.75;1.38;;;14.00;99.90;;;;;;5040395;28;20052;-69
2021/10/27 05:28:07;;;;;;;5.75;1.75;;;14.00;99.90;;;;;;5039324;28;20029;-67
2021/10/27 05:30:33;;;;;;;6.32;1.67;;;14.10;99.90;;;;;;5057031;28;20025;-66
2021/10/27 05:32:59;;;;;;;6.72;2.00;;;14.10;99.90;;;;;;5058822;28;20055;-66
2021/10/27 05:35:27;;;;;;;8.18;1.70;;;14.00;99.90;;;;;;5055634;28;20392;-67
2021/10/27 05:37:54;;;;;;;6.90;1.80;;;14.10;99.90;;;;;;5041262;28;20106;-68
2021/10/27 05:40:21;;;;;;;4.57;1.55;;;14.10;99.90;;;;;;5038234;28;20489;-68
2021/10/27 05:42:47;;;;;;;4.82;2.20;;;14.10;99.90;;;;;;5057906;28;20782;-68
2021/10/27 05:45:13;;;;;;;3.13;1.20;;;14.00;99.90;;;;;;5038721;28;20101;-68
2021/10/27 05:47:44;;;;;;;7.13;1.40;;;14.00;99.90;;;;;;5057753;28;20032;-68
2021/10/27 05:55:22;;;;;;;5.93;1.20;;;14.00;99.90;;;;;;5057813;28;20532;-68
2021/10/27 05:57:47;;;;;;;4.47;1.45;;;14.00;99.90;;;;;;5037358;28;20041;-67
2021/10/27 06:00:13;;;;;;;4.35;1.65;;;14.00;99.90;;;;;;5039377;28;20048;-68
2021/10/27 06:02:40;;;;;;;7.22;1.48;;;14.10;99.90;;;;;;5040630;28;20036;-67
2021/10/27 06:05:06;;;;;;;4.68;1.25;;;14.00;99.90;;;;;;5039138;28;20032;-70
2021/10/27 06:07:32;;;;;;;10.32;1.23;;;14.10;99.90;;;;;;5056544;28;20025;-67
2021/10/27 06:09:58;;;;;;;9.20;1.92;;;14.10;99.90;;;;;;5037880;28;20108;-66
2021/10/27 06:12:24;;;;;;;5.43;1.10;;;14.10;99.90;;;;;;5062042;28;20029;-68
2021/10/27 06:14:50;;;;;;;9.02;1.88;;;14.00;99.90;;;;;;5062730;28;20056;-68
2021/10/27 06:17:16;;;;;;;5.45;1.38;;;14.10;99.90;;;;;;5041672;28;20447;-67
2021/10/27 06:19:42;;;;;;;3.83;1.40;;;14.10;99.90;;;;;;5042979;28;20040;-67
2021/10/27 06:22:09;;;;;;;4.93;1.05;;;14.10;99.90;;;;;;5064746;28;20404;-67
2021/10/27 06:24:36;;;;;;;6.18;1.08;;;14.10;99.90;;;;;;5067567;28;20087;-67
2021/10/27 06:27:04;;;;;;;6.13;1.35;;;14.10;99.90;;;;;;5066845;28;20036;-69
2021/10/27 06:29:42;;;;;;;3.35;1.40;;;14.10;99.90;;;;;;5043314;28;20040;-65
2021/10/27 06:32:23;;;;;;;5.07;1.40;;;14.10;99.90;;;;;;5046015;28;20028;-68
2021/10/27 06:34:53;;;;;;;7.63;1.10;;;14.20;99.90;;;;;;5057705;28;20028;-68
2021/10/27 06:37:50;;;;;;;4.35;1.50;;;14.10;99.90;;;;;;5059649;28;20558;-68
2021/10/27 06:48:28;;;;;;;8.52;2.83;;;14.10;99.90;;;;;;5058822;28;20710;-66
2021/10/27 06:50:54;;;;;;;5.65;1.65;;;14.10;99.90;;;;;;5056264;28;20033;-69
2021/10/27 06:53:19;;;;;;;7.85;1.58;;;14.00;99.90;;;;;;5043401;28;20407;-67
2021/10/27 06:55:46;;;;;;;2.72;0.98;;;14.10;99.90;;;;;;5039674;28;20091;-67
2021/10/27 06:58:14;;;;;;;3.70;1.27;;;14.10;99.90;;;;;;5041989;28;20608;-68
2021/10/27 07:00:45;;;;;;;8.25;1.40;;;14.10;99.90;;;;;;5043176;28;20043;-67
2021/10/27 07:03:17;;;;;;;4.22;1.40;;;14.00;99.90;;;;;;5055258;28;20377;-68
2021/10/27 07:06:08;;;;;;;4.30;1.45;;;14.00;99.90;;;;;;5038071;28;20514;-71
2021/10/27 07:16:38;;;;;;;6.55;1.42;;;14.10;99.90;;;;;;5055409;28;20749;-66
2021/10/27 07:19:04;;;;;;;4.18;1.60;;;14.10;99.90;;;;;;5035257;28;20032;-68
2021/10/27 07:21:29;;;;;;;5.78;2.15;;;14.00;99.90;;;;;;5034453;28;20396;-68
2021/10/27 07:23:55;;;;;;;7.63;1.65;;;14.00;99.90;;;;;;5055928;28;20036;-67
2021/10/27 07:26:21;;;;;;;8.00;1.17;;;14.00;99.90;;;;;;5054902;28;20119;-67
2021/10/27 07:28:49;;;;;;;5.38;1.60;;;14.00;99.90;;;;;;5058207;28;20033;-68
2021/10/27 07:31:16;;;;;;;7.18;1.35;;;14.10;99.90;;;;;;5036998;28;20025;-69
2021/10/27 07:33:49;;;;;;;4.72;1.42;;;14.10;99.90;;;;;;5041016;28;20457;-69
2021/10/27 07:41:27;;;;;;;4.53;1.50;;;14.10;99.90;;;;;;5057241;28;20047;-67
2021/10/27 07:43:54;;;;;;;5.40;1.77;;;14.10;99.90;;;;;;5059801;28;20033;-68
2021/10/27 07:46:20;;;;;;;5.20;1.20;;;14.10;99.90;;;;;;5042197;28;20124;-67
2021/10/27 07:48:45;;;;;;;8.05;1.42;;;14.10;99.90;;;;;;5034967;28;20108;-68
2021/10/27 07:51:12;;;;;;;5.25;1.73;;;14.10;99.90;;;;;;5038451;28;20049;-69
2021/10/27 07:53:38;;;;;;;2.67;1.52;;;14.10;99.90;;;;;;5041188;28;20039;-68
2021/10/27 07:56:04;;;;;;;7.85;1.77;;;14.20;99.90;;;;;;5038200;28;20033;-67
2021/10/27 07:58:30;;;;;;;6.28;1.70;;;14.20;99.90;;;;;;5053789;28;20056;-68
2021/10/27 08:00:57;;;;;;;9.00;1.60;;;14.20;99.90;;;;;;5040806;28;20075;-69
2021/10/27 08:03:24;;;;;;;6.07;2.15;;;14.30;99.90;;;;;;5051510;28;20032;-67
2021/10/27 08:05:50;;;;;;;4.35;1.20;;;14.30;99.90;;;;;;5034323;28;20039;-69
2021/10/27 08:08:20;;;;;;;4.97;1.58;;;14.40;99.90;;;;;;5045039;28;20025;-68
2021/10/27 08:10:47;;;;;;;7.10;2.10;;;14.40;99.90;;;;;;5040359;28;20036;-68
2021/10/27 08:13:13;;;;;;;10.98;2.47;;;14.50;99.90;;;;;;5041421;28;20408;-70
2021/10/27 08:15:39;;;;;;;10.55;2.30;;;14.50;99.90;;;;;;5048476;28;20028;-68
2021/10/27 08:18:10;;;;;;;13.43;1.77;;;14.60;99.90;;;;;;5038762;28;20028;-69
2021/10/27 08:20:36;;;;;;;2.97;1.42;;;14.70;99.90;;;;;;5060669;28;20059;-67
2021/10/27 08:23:03;;;;;;;5.22;1.48;;;14.90;99.90;;;;;;5048610;28;20066;-70
2021/10/27 08:25:34;;;;;;;4.00;1.50;;;14.90;99.90;;;;;;5037565;28;20033;-67
2021/10/27 08:28:04;;;;;;;5.03;1.50;;;15.00;99.90;;;;;;5063645;28;20047;-68
2021/10/27 08:30:37;;;;;;;10.38;1.92;;;15.10;99.90;;;;;;5037260;28;20033;-66
2021/10/27 08:33:05;;;;;;;7.68;2.20;;;15.10;99.90;;;;;;5047249;28;20237;-67
2021/10/27 08:35:32;;;;;;;6.80;1.30;;;15.20;99.90;;;;;;5042483;28;20039;-67
2021/10/27 08:37:58;;;;;;;7.10;1.58;;;15.30;99.90;;;;;;5062980;28;20044;-67
2021/10/27 08:40:25;;;;;;;10.25;2.17;;;15.40;99.90;;;;;;5040613;28;20036;-68
2021/10/27 08:42:50;;;;;;;4.07;1.77;;;15.40;99.90;;;;;;5054234;28;20381;-68
2021/10/27 08:45:16;;;;;;;4.88;1.50;;;15.50;99.90;;;;;;5064140;28;20110;-68
2021/10/27 08:47:47;;;;;;;8.25;1.38;;;15.50;99.90;;;;;;5051800;28;20111;-67
2021/10/27 08:50:14;;;;;;;;;;;15.60;99.90;;;;;;5041049;28;20032;-68
2021/10/27 08:52:40;;;;;;;5.32;1.35;;;15.70;99.90;;;;;;5039654;28;19920;-68
2021/10/27 08:55:07;;;;;;;7.93;1.65;;;15.70;99.90;;;;;;5044902;28;20031;-70
2021/10/27 08:57:33;;;;;;;13.23;2.15;;;15.90;99.90;;;;;;5056614;28;20037;-69
2021/10/27 09:05:14;;;;;;;6.18;3.17;;;15.80;99.90;;;;;;5058698;28;20044;-68
2021/10/27 09:08:04;;;;;;;5.53;1.90;;;15.80;99.90;;;;;;5054585;28;20037;-68
2021/10/27 09:16:44;;;;;;;7.10;1.80;;;15.90;99.90;;;;;;5057598;28;20029;-68
2021/10/27 10:06:19;;;;;;;4.20;1.80;;;15.70;99.90;;;;;;5059219;28;20393;-69
2021/10/27 10:08:46;;;;;;;8.85;1.52;;;15.80;99.90;;;;;;5044581;28;20033;-71
2021/10/27 10:11:12;;;;;;;9.82;1.65;;;15.70;99.90;;;;;;5042541;28;20107;-68
2021/10/27 10:13:39;;;;;;;3.90;1.20;;;15.70;99.90;;;;;;5046168;28;20583;-68
2021/10/27 10:16:06;;;;;;;4.57;1.15;;;15.80;99.90;;;;;;5062262;28;20036;-68
2021/10/27 10:18:32;;;;;;;3.70;1.20;;;15.80;99.90;;;;;;5059227;28;20439;-68
2021/10/27 10:20:59;;;;;;;4.20;1.58;;;15.80;99.90;;;;;;5058287;28;20032;-69
2021/10/27 10:23:26;;;;;;;8.73;1.40;;;15.80;99.90;;;;;;5059451;28;20049;-68
2021/10/27 10:25:57;;;;;;;3.25;1.20;;;15.80;99.90;;;;;;5059907;28;20033;-68
2021/10/27 10:28:26;;;;;;;5.95;1.05;;;15.90;99.90;;;;;;5060526;28;20032;-68
2021/10/27 10:30:56;;;;;;;5.95;1.20;;;15.90;99.90;;;;;;5060422;28;20040;-68
2021/10/27 10:33:37;;;;;;;2.97;1.40;;;16.00;99.90;;;;;;5044573;28;20416;-69
2021/10/27 10:36:15;;;;;;;5.38;1.00;;;15.90;99.90;;;;;;5041439;28;20060;-69
2021/10/27 10:44:40;;;;;;;2.45;0.95;;;16.00;99.90;;;;;;5058099;28;20128;-68
2021/10/27 11:38:22;;;;;;;4.30;1.05;;;16.10;99.90;;;;;;5059132;28;20094;-71
2021/10/27 11:40:54;;;;;;;2.45;1.00;;;16.10;99.90;;;;;;5041439;28;20048;-68
2021/10/27 11:43:35;;;;;;;7.40;1.75;;;16.10;99.90;;;;;;5060251;28;20098;-68
2021/10/27 11:51:13;;;;;;;6.60;1.48;;;16.00;99.90;;;;;;5057615;28;20118;-69
2021/10/27 11:53:41;;;;;;;5.22;1.40;;;16.00;99.90;;;;;;5039594;28;20051;-66
2021/10/27 11:56:22;;;;;;;6.25;1.40;;;16.00;99.90;;;;;;5053554;28;20447;-69
2021/10/27 11:58:51;;;;;;;6.43;1.50;;;16.00;99.90;;;;;;5056736;28;20523;-69
2021/10/27 12:01:34;;;;;;;4.65;1.42;;;16.00;99.90;;;;;;5040660;28;20469;-68
2021/10/27 12:04:01;;;;;;;8.05;1.55;;;16.10;99.90;;;;;;5056694;28;20040;-68
2021/10/27 12:06:37;;;;;;;6.55;1.65;;;16.20;99.90;;;;;;5041842;28;20036;-69
2021/10/27 12:09:13;;;;;;;3.55;1.98;;;16.30;99.90;;;;;;5056838;28;20032;-69
2021/10/27 12:14:39;;;;;;;6.78;1.73;;;16.50;99.90;;;;;;5057364;28;20124;-67
2021/10/27 12:17:23;;;;;;;3.67;1.67;;;16.50;99.90;;;;;;5042857;28;20124;-68
2021/10/27 12:19:49;;;;;;;4.55;1.27;;;16.40;99.90;;;;;;5039775;28;20396;-68
2021/10/27 12:22:20;;;;;;;3.75;1.90;;;16.50;99.90;;;;;;5036378;28;20108;-69
2021/10/27 12:24:56;;;;;;;11.15;1.98;;;16.50;99.90;;;;;;5057908;28;20043;-70
2021/10/27 12:27:32;;;;;;;8.07;2.08;;;16.50;99.90;;;;;;5060229;28;20040;-68
2021/10/27 12:30:07;;;;;;;7.63;1.80;;;16.40;99.90;;;;;;5041517;28;20044;-67
2021/10/27 12:32:34;;;;;;;6.05;1.70;;;16.50;99.90;;;;;;5038606;28;20501;-69
2021/10/27 12:35:08;;;;;;;7.70;1.83;;;16.50;99.90;;;;;;5042148;28;20050;-70
2021/10/27 12:37:45;;;;;;;8.07;1.42;;;16.50;99.90;;;;;;5038950;28;20103;-69
2021/10/27 12:40:32;;;;;;;4.75;1.55;;;16.50;99.90;;;;;;5047089;28;20048;-70
2021/10/27 12:43:15;;;;;;;4.45;1.60;;;16.60;99.90;;;;;;5038883;28;20759;-67
2021/10/27 12:45:51;;;;;;;3.40;1.20;;;16.60;99.90;;;;;;5060627;28;20040;-68
2021/10/27 12:48:25;;;;;;;5.13;1.00;;;16.60;99.90;;;;;;5057545;28;20033;-69
2021/10/27 12:50:58;;;;;;;5.07;1.58;;;16.70;99.90;;;;;;5058531;28;20094;-67
2021/10/27 12:53:30;;;;;;;3.60;1.00;;;16.60;99.90;;;;;;5056896;28;20049;-69
2021/10/27 12:56:26;;;;;;;4.53;1.38;;;16.60;99.90;;;;;;5040598;28;20551;-68
2021/10/27 12:59:06;;;;;;;4.00;1.45;;;16.60;99.90;;;;;;5055823;28;20086;-69
2021/10/27 13:04:16;;;;;;;2.83;1.17;;;16.60;99.90;;;;;;5062894;28;20391;-68
2021/10/27 13:15:01;;;;;;;2.80;1.27;;;16.20;99.90;;;;;;5056340;28;20035;-67
2021/10/27 13:17:36;;;;;;;4.03;1.20;;;16.20;99.90;;;;;;5051054;28;20036;-67
2021/10/27 13:31:12;;;;;;;4.53;1.80;;;16.00;99.90;;;;;;5052074;28;20132;-69
2021/10/27 13:33:37;;;;;;;5.10;1.65;;;16.00;99.90;;;;;;5027287;28;20562;-68
2021/10/27 13:36:03;;;;;;;9.00;2.22;;;16.00;99.90;;;;;;5039383;28;20033;-68
2021/10/27 13:38:34;;;;;;;5.40;1.90;;;16.00;99.90;;;;;;5060135;28;20386;-68
2021/10/27 13:41:01;;;;;;;6.70;2.33;;;16.00;99.90;;;;;;5057430;28;20055;-66
2021/10/27 13:43:36;;;;;;;5.40;1.90;;;16.00;99.90;;;;;;5043604;28;20413;-68
2021/10/27 14:09:48;;;;;;;4.28;2.03;;;15.70;99.90;;;;;;5068328;28;20039;-67
2021/10/27 14:14:52;;;;;;;6.40;2.08;;;15.60;99.90;;;;;;5073983;28;20464;-66
2021/10/27 14:17:36;;;;;;;3.90;2.05;;;15.50;99.90;;;;;;5047790;28;20059;-66
2021/10/27 14:38:49;;;;;;;4.53;2.22;;;15.40;99.90;;;;;;5059329;28;20043;-66
2021/10/27 15:20:34;;;;;;;5.78;2.50;;;15.10;99.90;;;;;;5065314;28;20053;-66
2021/10/27 15:27:39;;;;;;;7.80;2.60;;;15.10;99.90;;;;;;5066808;28;20117;-65
2021/10/27 15:28:38;;;;;;;6.07;2.42;;;15.10;99.90;;;;;;5062140;28;20039;-67
2021/10/27 15:31:28;;;;;;;8.95;2.63;;;15.10;99.90;;;;;;5056953;28;20559;-67
2021/10/27 15:34:05;;;;;;;;;;;15.10;99.90;;;;;;5070386;28;20063;-66
2021/10/27 15:36:57;;;;;;;7.45;2.45;;;15.00;99.90;;;;;;5069028;28;19920;-66
2021/10/27 15:42:31;;;;;;;9.48;3.60;;;14.70;99.90;;;;;;5077298;28;20210;-65
2021/10/27 15:50:35;;;;;;;9.00;3.45;;;14.50;99.90;;;;;;5067399;28;20094;-69
2021/10/27 15:53:01;;;;;;;9.35;3.55;;;14.40;99.90;;;;;;5075469;28;20049;-66
2021/10/27 15:55:27;;;;;;;7.72;3.15;;;14.30;99.90;;;;;;5067327;28;20369;-69
2021/10/27 15:57:53;;;;;;;7.93;3.00;;;14.20;99.90;;;;;;5067600;28;20063;-68
2021/10/27 16:00:22;;;;;;;11.02;3.15;;;14.20;99.90;;;;;;5075884;28;20032;-68
2021/10/27 16:02:48;;;;;;;8.95;2.75;;;14.10;99.90;;;;;;5064480;28;20087;-65
2021/10/27 16:05:14;;;;;;;8.95;3.42;;;14.00;99.90;;;;;;5066773;28;20065;-65
2021/10/27 16:07:42;;;;;;;8.23;2.70;;;14.00;99.90;;;;;;5071641;28;20479;-66
2021/10/27 16:10:19;;;;;;;10.10;4.03;;;13.90;99.90;;;;;;5067713;28;20400;-65
2021/10/27 16:12:46;;;;;;;7.13;3.30;;;13.90;99.90;;;;;;5067402;28;20048;-66
2021/10/27 16:15:20;;;;;;;10.00;3.20;;;13.80;99.90;;;;;;5063518;28;20389;-65
2021/10/27 16:17:45;;;;;;;10.57;3.67;;;13.70;99.90;;;;;;5067861;28;20044;-65
2021/10/27 16:20:11;;;;;;;9.07;3.05;;;13.70;99.90;;;;;;5069088;28;20036;-66
2021/10/27 16:22:37;;;;;;;11.95;4.20;;;13.60;99.90;;;;;;5068835;28;20047;-65
2021/10/27 16:25:04;;;;;;;6.53;3.05;;;13.50;99.90;;;;;;5041690;28;20060;-66
2021/10/27 16:27:30;;;;;;;11.52;3.88;;;13.50;99.90;;;;;;5064616;28;20036;-65
2021/10/27 16:29:56;;;;;;;10.73;3.53;;;13.40;99.90;;;;;;5071263;28;20052;-67
2021/10/27 16:32:22;;;;;;;8.00;3.60;;;13.40;99.90;;;;;;5070304;28;20033;-67
2021/10/27 16:34:47;;;;;;;9.30;4.30;;;13.30;99.90;;;;;;5031274;28;20119;-65
2021/10/27 16:37:13;;;;;;;14.50;3.95;;;13.30;99.90;;;;;;5059117;28;20407;-65
2021/10/27 16:39:39;;;;;;;9.25;3.83;;;13.20;99.90;;;;;;5052708;28;20044;-66
2021/10/27 16:42:05;;;;;;;7.40;3.58;;;13.20;99.90;;;;;;5036986;28;20190;-65
2021/10/27 16:44:30;;;;;;;12.88;3.75;;;13.10;99.90;;;;;;5046996;28;20062;-66
2021/10/27 16:46:57;;;;;;;11.63;3.78;;;13.10;99.90;;;;;;5085989;28;20428;-65
2021/10/27 16:49:22;;;;;;;11.50;4.30;;;13.10;99.90;;;;;;5057019;28;20044;-66
2021/10/27 16:51:48;;;;;;;9.60;4.00;;;13.00;99.90;;;;;;5055338;28;20037;-65
2021/10/27 16:54:13;;;;;;;5.97;3.22;;;13.00;99.90;;;;;;5046963;28;20033;-65
2021/10/27 16:56:40;;;;;;;9.88;4.22;;;12.90;99.90;;;;;;5063304;28;20027;-64
2021/10/27 16:59:07;;;;;;;10.10;4.07;;;12.90;99.90;;;;;;5037031;28;20053;-64
2021/10/27 17:01:35;;;;;;;9.98;3.80;;;12.90;99.90;;;;;;5060508;28;20081;-66
2021/10/27 17:04:01;;;;;;;10.88;4.00;;;12.80;99.90;;;;;;5057394;28;20036;-67
2021/10/27 17:06:27;;;;;;;8.68;4.47;;;12.70;99.90;;;;;;5047881;28;20152;-66
2021/10/27 17:08:52;;;;;;;9.70;4.30;;;12.70;99.90;;;;;;5034080;28;20134;-67
2021/10/27 17:11:19;;;;;;;11.35;4.45;;;12.70;99.90;;;;;;5049660;28;20031;-67
2021/10/27 17:13:44;;;;;;;7.93;3.67;;;12.60;99.90;;;;;;5051628;28;20539;-68
2021/10/27 17:16:11;;;;;;;12.10;4.45;;;12.60;99.90;;;;;;5062805;28;20115;-66
2021/10/27 17:18:38;;;;;;;12.23;4.20;;;12.60;99.90;;;;;;5034625;28;20584;-65